sensor_id;sensor_type;location;lat;lon;timestamp;temperature;humidity
31387;DHT22;18017;50.124;8.688;2022-08-19T00:01:50;22.60;99.90
31387;DHT22;18017;50.124;8.688;2022-08-19T00:04:18;22.50;99.90
31387;DHT22;18017;50.124;8.688;2022-08-19T00:06:45;22.50;99.90
31387;DHT22;18017;50.124;8.688;2022-08-19T00:09:14;22.50;99.90
31387;DHT22;18017;50.124;8.688;2022-08-19T00:11:41;22.50;99.90
31387;DHT22;18017;50.124;8.688;2022-08-19T00:14:10;22.50;99.90
31387;DHT22;18017;50.124;8.688;2022-08-19T00:16:37;22.50;99.90
31387;DHT22;18017;50.124;8.688;2022-08-19T00:19:04;22.50;99.90
31387;DHT22;18017;50.124;8.688;2022-08-19T00:21:30;22.50;99.90
31387;DHT22;18017;50.124;8.688;2022-08-19T00:23:57;22.50;99.90
31387;DHT22;18017;50.124;8.688;2022-08-19T00:26:27;22.50;99.90
31387;DHT22;18017;50.124;8.688;2022-08-19T00:28:54;22.40;99.90
31387;DHT22;18017;50.124;8.688;2022-08-19T00:31:20;22.40;99.90
31387;DHT22;18017;50.124;8.688;2022-08-19T00:33:46;22.50;99.90
31387;DHT22;18017;50.124;8.688;2022-08-19T00:36:13;22.40;99.90
31387;DHT22;18017;50.124;8.688;2022-08-19T00:38:39;22.40;99.90
31387;DHT22;18017;50.124;8.688;2022-08-19T00:41:13;22.40;99.90
31387;DHT22;18017;50.124;8.688;2022-08-19T00:43:39;22.40;99.90
31387;DHT22;18017;50.124;8.688;2022-08-19T00:46:07;22.40;99.90
31387;DHT22;18017;50.124;8.688;2022-08-19T00:48:34;22.40;99.90
31387;DHT22;18017;50.124;8.688;2022-08-19T00:51:01;22.40;99.90
31387;DHT22;18017;50.124;8.688;2022-08-19T00:53:28;22.40;99.90
31387;DHT22;18017;50.124;8.688;2022-08-19T00:55:56;22.30;99.90
31387;DHT22;18017;50.124;8.688;2022-08-19T00:58:27;22.30;99.90
31387;DHT22;18017;50.124;8.688;2022-08-19T01:00:54;22.30;99.90
31387;DHT22;18017;50.124;8.688;2022-08-19T01:03:21;22.30;99.90
31387;DHT22;18017;50.124;8.688;2022-08-19T01:05:49;22.30;99.90
31387;DHT22;18017;50.124;8.688;2022-08-19T01:08:17;22.30;99.90
31387;DHT22;18017;50.124;8.688;2022-08-19T01:10:55;22.30;99.90
31387;DHT22;18017;50.124;8.688;2022-08-19T01:13:24;22.20;99.90
31387;DHT22;18017;50.124;8.688;2022-08-19T01:15:57;22.20;99.90
31387;DHT22;18017;50.124;8.688;2022-08-19T01:18:25;22.20;99.90
31387;DHT22;18017;50.124;8.688;2022-08-19T01:20:54;22.20;99.90
31387;DHT22;18017;50.124;8.688;2022-08-19T01:23:21;22.20;99.90
31387;DHT22;18017;50.124;8.688;2022-08-19T01:26:07;22.20;99.90
31387;DHT22;18017;50.124;8.688;2022-08-19T01:28:33;22.20;99.90
31387;DHT22;18017;50.124;8.688;2022-08-19T01:30:59;22.10;99.90
31387;DHT22;18017;50.124;8.688;2022-08-19T01:33:24;22.10;99.90
31387;DHT22;18017;50.124;8.688;2022-08-19T01:35:50;22.10;99.90
31387;DHT22;18017;50.124;8.688;2022-08-19T01:38:24;22.10;99.90
31387;DHT22;18017;50.124;8.688;2022-08-19T01:40:50;22.10;99.90
31387;DHT22;18017;50.124;8.688;2022-08-19T01:43:16;22.10;99.90
31387;DHT22;18017;50.124;8.688;2022-08-19T01:45:42;22.10;99.90
31387;DHT22;18017;50.124;8.688;2022-08-19T01:48:08;22.10;99.90
31387;DHT22;18017;50.124;8.688;2022-08-19T01:50:35;22.00;99.90
31387;DHT22;18017;50.124;8.688;2022-08-19T01:53:03;22.00;99.90
31387;DHT22;18017;50.124;8.688;2022-08-19T01:55:30;22.00;99.90
31387;DHT22;18017;50.124;8.688;2022-08-19T01:57:58;22.00;99.90
31387;DHT22;18017;50.124;8.688;2022-08-19T02:00:28;22.00;99.90
31387;DHT22;18017;50.124;8.688;2022-08-19T02:02:54;21.90;99.90
31387;DHT22;18017;50.124;8.688;2022-08-19T02:05:20;21.90;99.90
31387;DHT22;18017;50.124;8.688;2022-08-19T02:07:47;21.90;99.90
31387;DHT22;18017;50.124;8.688;2022-08-19T02:10:16;21.90;99.90
31387;DHT22;18017;50.124;8.688;2022-08-19T02:12:43;21.90;99.90
31387;DHT22;18017;50.124;8.688;2022-08-19T02:15:09;21.90;99.90
31387;DHT22;18017;50.124;8.688;2022-08-19T02:17:35;21.90;99.90
31387;DHT22;18017;50.124;8.688;2022-08-19T02:20:01;21.80;99.90
31387;DHT22;18017;50.124;8.688;2022-08-19T02:22:27;21.80;99.90
31387;DHT22;18017;50.124;8.688;2022-08-19T02:24:53;21.80;99.90
31387;DHT22;18017;50.124;8.688;2022-08-19T02:27:19;21.80;99.90
31387;DHT22;18017;50.124;8.688;2022-08-19T02:29:50;21.80;99.90
31387;DHT22;18017;50.124;8.688;2022-08-19T02:32:16;21.90;99.90
31387;DHT22;18017;50.124;8.688;2022-08-19T02:34:45;21.90;99.90
31387;DHT22;18017;50.124;8.688;2022-08-19T02:37:10;21.90;99.90
31387;DHT22;18017;50.124;8.688;2022-08-19T02:39:56;21.90;99.90
31387;DHT22;18017;50.124;8.688;2022-08-19T02:42:22;21.90;99.90
31387;DHT22;18017;50.124;8.688;2022-08-19T02:44:47;21.90;99.90
31387;DHT22;18017;50.124;8.688;2022-08-19T02:47:13;21.90;99.90
31387;DHT22;18017;50.124;8.688;2022-08-19T02:49:40;21.90;99.90
31387;DHT22;18017;50.124;8.688;2022-08-19T02:52:06;21.80;99.90
31387;DHT22;18017;50.124;8.688;2022-08-19T02:54:32;21.80;99.90
31387;DHT22;18017;50.124;8.688;2022-08-19T02:56:57;21.80;99.90
31387;DHT22;18017;50.124;8.688;2022-08-19T02:59:24;21.70;99.90
31387;DHT22;18017;50.124;8.688;2022-08-19T03:01:51;21.70;99.90
31387;DHT22;18017;50.124;8.688;2022-08-19T03:04:17;21.70;99.90
31387;DHT22;18017;50.124;8.688;2022-08-19T03:06:46;21.70;99.90
31387;DHT22;18017;50.124;8.688;2022-08-19T03:09:13;21.70;99.90
31387;DHT22;18017;50.124;8.688;2022-08-19T03:11:39;21.70;99.90
31387;DHT22;18017;50.124;8.688;2022-08-19T03:14:07;21.60;99.90
31387;DHT22;18017;50.124;8.688;2022-08-19T03:16:40;21.50;99.90
31387;DHT22;18017;50.124;8.688;2022-08-19T03:19:06;21.50;99.90
31387;DHT22;18017;50.124;8.688;2022-08-19T03:21:33;21.40;99.90
31387;DHT22;18017;50.124;8.688;2022-08-19T03:24:03;21.40;99.90
31387;DHT22;18017;50.124;8.688;2022-08-19T03:26:29;21.40;99.90
31387;DHT22;18017;50.124;8.688;2022-08-19T03:28:55;21.40;99.90
31387;DHT22;18017;50.124;8.688;2022-08-19T03:31:22;21.40;99.90
31387;DHT22;18017;50.124;8.688;2022-08-19T03:33:49;21.40;99.90
31387;DHT22;18017;50.124;8.688;2022-08-19T03:36:18;21.50;99.90
31387;DHT22;18017;50.124;8.688;2022-08-19T03:38:51;21.50;99.90
31387;DHT22;18017;50.124;8.688;2022-08-19T03:41:20;21.50;99.90
31387;DHT22;18017;50.124;8.688;2022-08-19T03:43:47;21.50;99.90
31387;DHT22;18017;50.124;8.688;2022-08-19T03:46:22;21.60;99.90
31387;DHT22;18017;50.124;8.688;2022-08-19T03:48:50;21.60;99.90
31387;DHT22;18017;50.124;8.688;2022-08-19T03:51:34;21.60;99.90
31387;DHT22;18017;50.124;8.688;2022-08-19T03:54:02;21.60;99.90
31387;DHT22;18017;50.124;8.688;2022-08-19T03:56:28;21.60;99.90
31387;DHT22;18017;50.124;8.688;2022-08-19T03:58:56;21.60;99.90
31387;DHT22;18017;50.124;8.688;2022-08-19T04:01:25;21.50;99.90
31387;DHT22;18017;50.124;8.688;2022-08-19T04:03:55;21.50;99.90
31387;DHT22;18017;50.124;8.688;2022-08-19T04:06:26;21.40;99.90
31387;DHT22;18017;50.124;8.688;2022-08-19T04:08:53;21.30;99.90
31387;DHT22;18017;50.124;8.688;2022-08-19T04:11:24;21.30;99.90
31387;DHT22;18017;50.124;8.688;2022-08-19T04:13:51;21.20;99.90
31387;DHT22;18017;50.124;8.688;2022-08-19T04:16:18;21.20;99.90
31387;DHT22;18017;50.124;8.688;2022-08-19T04:18:45;21.20;99.90
31387;DHT22;18017;50.124;8.688;2022-08-19T04:21:20;21.20;99.90
31387;DHT22;18017;50.124;8.688;2022-08-19T04:23:46;21.20;99.90
31387;DHT22;18017;50.124;8.688;2022-08-19T04:26:13;21.20;99.90
31387;DHT22;18017;50.124;8.688;2022-08-19T04:28:39;21.20;99.90
31387;DHT22;18017;50.124;8.688;2022-08-19T04:31:05;21.20;99.90
31387;DHT22;18017;50.124;8.688;2022-08-19T04:33:30;21.20;99.90
31387;DHT22;18017;50.124;8.688;2022-08-19T04:35:56;21.20;99.90
31387;DHT22;18017;50.124;8.688;2022-08-19T04:38:23;21.10;99.90
31387;DHT22;18017;50.124;8.688;2022-08-19T04:40:51;21.10;99.90
31387;DHT22;18017;50.124;8.688;2022-08-19T04:43:37;21.10;99.90
31387;DHT22;18017;50.124;8.688;2022-08-19T04:46:07;21.20;99.90
31387;DHT22;18017;50.124;8.688;2022-08-19T04:48:34;21.20;99.90
31387;DHT22;18017;50.124;8.688;2022-08-19T04:50:59;21.30;99.90
31387;DHT22;18017;50.124;8.688;2022-08-19T04:53:30;21.40;99.90
31387;DHT22;18017;50.124;8.688;2022-08-19T04:55:57;21.40;99.90
31387;DHT22;18017;50.124;8.688;2022-08-19T04:58:25;21.50;99.90
31387;DHT22;18017;50.124;8.688;2022-08-19T05:00:51;21.50;99.90
31387;DHT22;18017;50.124;8.688;2022-08-19T05:03:17;21.50;99.90
31387;DHT22;18017;50.124;8.688;2022-08-19T05:05:47;21.50;99.90
31387;DHT22;18017;50.124;8.688;2022-08-19T05:08:19;21.60;99.90
31387;DHT22;18017;50.124;8.688;2022-08-19T05:10:47;21.70;99.90
31387;DHT22;18017;50.124;8.688;2022-08-19T05:13:13;21.80;99.90
31387;DHT22;18017;50.124;8.688;2022-08-19T05:15:40;21.80;99.90
31387;DHT22;18017;50.124;8.688;2022-08-19T05:18:05;21.80;99.90
31387;DHT22;18017;50.124;8.688;2022-08-19T05:20:49;21.90;99.90
31387;DHT22;18017;50.124;8.688;2022-08-19T05:23:33;22.00;99.90
31387;DHT22;18017;50.124;8.688;2022-08-19T05:25:59;22.10;99.90
31387;DHT22;18017;50.124;8.688;2022-08-19T05:28:26;22.20;99.90
31387;DHT22;18017;50.124;8.688;2022-08-19T05:30:51;22.30;99.90
31387;DHT22;18017;50.124;8.688;2022-08-19T05:33:18;22.30;99.90
31387;DHT22;18017;50.124;8.688;2022-08-19T05:35:44;22.40;99.90
31387;DHT22;18017;50.124;8.688;2022-08-19T05:38:10;22.60;99.90
31387;DHT22;18017;50.124;8.688;2022-08-19T05:40:37;22.60;99.90
31387;DHT22;18017;50.124;8.688;2022-08-19T05:43:05;22.80;99.90
31387;DHT22;18017;50.124;8.688;2022-08-19T05:45:31;22.90;99.90
31387;DHT22;18017;50.124;8.688;2022-08-19T05:47:57;23.00;99.90
31387;DHT22;18017;50.124;8.688;2022-08-19T05:50:24;23.10;99.90
31387;DHT22;18017;50.124;8.688;2022-08-19T05:52:51;23.30;99.90
31387;DHT22;18017;50.124;8.688;2022-08-19T05:55:16;23.60;99.90
31387;DHT22;18017;50.124;8.688;2022-08-19T05:57:42;23.90;99.90
31387;DHT22;18017;50.124;8.688;2022-08-19T06:00:08;24.20;99.90
31387;DHT22;18017;50.124;8.688;2022-08-19T06:02:36;24.60;99.90
31387;DHT22;18017;50.124;8.688;2022-08-19T06:05:03;24.90;99.90
31387;DHT22;18017;50.124;8.688;2022-08-19T06:07:29;25.20;99.90
31387;DHT22;18017;50.124;8.688;2022-08-19T06:09:55;25.30;99.90
31387;DHT22;18017;50.124;8.688;2022-08-19T06:12:21;25.70;99.90
31387;DHT22;18017;50.124;8.688;2022-08-19T06:14:56;26.00;99.90
31387;DHT22;18017;50.124;8.688;2022-08-19T06:17:21;26.50;99.90
31387;DHT22;18017;50.124;8.688;2022-08-19T06:19:51;27.10;99.90
31387;DHT22;18017;50.124;8.688;2022-08-19T06:22:17;27.40;99.90
31387;DHT22;18017;50.124;8.688;2022-08-19T06:24:42;27.50;99.90
31387;DHT22;18017;50.124;8.688;2022-08-19T06:27:08;27.60;99.90
31387;DHT22;18017;50.124;8.688;2022-08-19T06:29:34;27.00;99.90
31387;DHT22;18017;50.124;8.688;2022-08-19T06:32:02;26.50;99.90
31387;DHT22;18017;50.124;8.688;2022-08-19T06:34:30;26.00;99.90
31387;DHT22;18017;50.124;8.688;2022-08-19T06:36:58;25.80;99.90
31387;DHT22;18017;50.124;8.688;2022-08-19T06:39:29;25.70;99.90
31387;DHT22;18017;50.124;8.688;2022-08-19T06:41:58;25.70;99.90
31387;DHT22;18017;50.124;8.688;2022-08-19T06:44:26;25.70;99.90
31387;DHT22;18017;50.124;8.688;2022-08-19T06:46:52;25.60;99.90
31387;DHT22;18017;50.124;8.688;2022-08-19T06:49:18;25.50;99.90
31387;DHT22;18017;50.124;8.688;2022-08-19T06:51:46;25.70;99.90
31387;DHT22;18017;50.124;8.688;2022-08-19T06:54:16;26.30;99.90
31387;DHT22;18017;50.124;8.688;2022-08-19T06:56:43;28.90;99.90
31387;DHT22;18017;50.124;8.688;2022-08-19T06:59:14;30.50;99.90
31387;DHT22;18017;50.124;8.688;2022-08-19T07:01:42;31.20;98.80
31387;DHT22;18017;50.124;8.688;2022-08-19T07:04:11;31.10;98.10
31387;DHT22;18017;50.124;8.688;2022-08-19T07:06:37;31.70;97.30
31387;DHT22;18017;50.124;8.688;2022-08-19T07:09:04;31.90;96.50
31387;DHT22;18017;50.124;8.688;2022-08-19T07:11:30;32.50;96.00
31387;DHT22;18017;50.124;8.688;2022-08-19T07:13:56;33.10;95.10
31387;DHT22;18017;50.124;8.688;2022-08-19T07:16:21;32.20;94.80
31387;DHT22;18017;50.124;8.688;2022-08-19T07:18:50;31.20;95.10
31387;DHT22;18017;50.124;8.688;2022-08-19T07:21:20;30.40;95.70
31387;DHT22;18017;50.124;8.688;2022-08-19T07:23:47;30.10;95.80
31387;DHT22;18017;50.124;8.688;2022-08-19T07:26:19;29.90;96.20
31387;DHT22;18017;50.124;8.688;2022-08-19T07:28:48;30.70;95.80
31387;DHT22;18017;50.124;8.688;2022-08-19T07:31:17;32.00;94.90
31387;DHT22;18017;50.124;8.688;2022-08-19T07:33:45;34.10;93.60
31387;DHT22;18017;50.124;8.688;2022-08-19T07:36:13;35.70;92.10
31387;DHT22;18017;50.124;8.688;2022-08-19T07:38:41;36.70;90.80
31387;DHT22;18017;50.124;8.688;2022-08-19T07:41:11;37.90;89.60
31387;DHT22;18017;50.124;8.688;2022-08-19T07:43:38;38.20;87.60
31387;DHT22;18017;50.124;8.688;2022-08-19T07:46:05;39.10;85.90
31387;DHT22;18017;50.124;8.688;2022-08-19T07:48:32;39.40;84.70
31387;DHT22;18017;50.124;8.688;2022-08-19T07:51:01;38.90;83.90
31387;DHT22;18017;50.124;8.688;2022-08-19T07:53:29;38.70;83.60
31387;DHT22;18017;50.124;8.688;2022-08-19T07:55:55;39.30;83.10
31387;DHT22;18017;50.124;8.688;2022-08-19T07:58:23;39.00;82.00
31387;DHT22;18017;50.124;8.688;2022-08-19T08:00:50;39.80;81.50
31387;DHT22;18017;50.124;8.688;2022-08-19T08:03:18;40.40;79.90
31387;DHT22;18017;50.124;8.688;2022-08-19T08:05:44;38.80;80.00
31387;DHT22;18017;50.124;8.688;2022-08-19T08:08:28;40.50;79.60
31387;DHT22;18017;50.124;8.688;2022-08-19T08:11:14;42.90;77.00
31387;DHT22;18017;50.124;8.688;2022-08-19T08:13:40;42.30;76.10
31387;DHT22;18017;50.124;8.688;2022-08-19T08:16:06;42.70;75.50
31387;DHT22;18017;50.124;8.688;2022-08-19T08:18:32;42.90;74.70
31387;DHT22;18017;50.124;8.688;2022-08-19T08:20:59;43.40;74.00
31387;DHT22;18017;50.124;8.688;2022-08-19T08:23:25;45.00;73.00
31387;DHT22;18017;50.124;8.688;2022-08-19T08:25:52;45.70;71.70
31387;DHT22;18017;50.124;8.688;2022-08-19T08:28:18;46.30;71.00
31387;DHT22;18017;50.124;8.688;2022-08-19T08:30:45;47.00;70.10
31387;DHT22;18017;50.124;8.688;2022-08-19T08:33:13;47.40;69.70
31387;DHT22;18017;50.124;8.688;2022-08-19T08:35:40;47.20;68.40
31387;DHT22;18017;50.124;8.688;2022-08-19T08:38:07;45.80;68.10
31387;DHT22;18017;50.124;8.688;2022-08-19T08:45:42;36.40;75.50
31387;DHT22;18017;50.124;8.688;2022-08-19T08:48:34;39.80;73.60
31387;DHT22;18017;50.124;8.688;2022-08-19T08:51:04;43.80;71.10
31387;DHT22;18017;50.124;8.688;2022-08-19T08:53:31;45.70;69.00
31387;DHT22;18017;50.124;8.688;2022-08-19T08:56:03;45.80;68.20
31387;DHT22;18017;50.124;8.688;2022-08-19T08:58:56;44.70;68.60
31387;DHT22;18017;50.124;8.688;2022-08-19T09:01:23;42.70;70.10
31387;DHT22;18017;50.124;8.688;2022-08-19T09:03:49;45.20;69.10
31387;DHT22;18017;50.124;8.688;2022-08-19T09:06:39;47.90;66.70
31387;DHT22;18017;50.124;8.688;2022-08-19T09:09:27;49.20;65.90
31387;DHT22;18017;50.124;8.688;2022-08-19T09:12:35;46.80;65.60
31387;DHT22;18017;50.124;8.688;2022-08-19T09:15:09;43.80;67.20
31387;DHT22;18017;50.124;8.688;2022-08-19T09:17:36;41.90;68.40
31387;DHT22;18017;50.124;8.688;2022-08-19T09:20:23;40.40;70.20
31387;DHT22;18017;50.124;8.688;2022-08-19T09:22:49;38.30;72.00
31387;DHT22;18017;50.124;8.688;2022-08-19T09:25:19;38.40;73.40
31387;DHT22;18017;50.124;8.688;2022-08-19T09:27:48;40.80;71.30
31387;DHT22;18017;50.124;8.688;2022-08-19T09:30:20;39.00;71.10
31387;DHT22;18017;50.124;8.688;2022-08-19T09:32:47;37.00;73.60
31387;DHT22;18017;50.124;8.688;2022-08-19T09:35:14;42.10;71.30
31387;DHT22;18017;50.124;8.688;2022-08-19T09:37:40;45.70;68.10
31387;DHT22;18017;50.124;8.688;2022-08-19T09:40:06;42.80;68.10
31387;DHT22;18017;50.124;8.688;2022-08-19T09:42:32;42.50;69.40
31387;DHT22;18017;50.124;8.688;2022-08-19T09:44:59;45.30;68.40
31387;DHT22;18017;50.124;8.688;2022-08-19T09:47:25;44.10;68.50
31387;DHT22;18017;50.124;8.688;2022-08-19T09:49:51;46.50;67.80
31387;DHT22;18017;50.124;8.688;2022-08-19T09:52:16;47.70;66.70
31387;DHT22;18017;50.124;8.688;2022-08-19T09:54:43;47.90;66.40
31387;DHT22;18017;50.124;8.688;2022-08-19T09:57:09;48.70;65.50
31387;DHT22;18017;50.124;8.688;2022-08-19T09:59:35;49.00;65.20
31387;DHT22;18017;50.124;8.688;2022-08-19T10:02:01;44.30;65.90
31387;DHT22;18017;50.124;8.688;2022-08-19T10:04:26;39.70;69.00
31387;DHT22;18017;50.124;8.688;2022-08-19T10:07:12;38.80;72.30
31387;DHT22;18017;50.124;8.688;2022-08-19T10:09:37;43.30;69.30
31387;DHT22;18017;50.124;8.688;2022-08-19T10:12:04;45.40;67.30
31387;DHT22;18017;50.124;8.688;2022-08-19T10:14:30;48.00;66.10
31387;DHT22;18017;50.124;8.688;2022-08-19T10:16:56;48.40;64.70
31387;DHT22;18017;50.124;8.688;2022-08-19T10:19:22;44.80;65.80
31387;DHT22;18017;50.124;8.688;2022-08-19T10:21:47;42.00;68.10
31387;DHT22;18017;50.124;8.688;2022-08-19T10:24:13;39.40;69.10
31387;DHT22;18017;50.124;8.688;2022-08-19T10:26:40;36.70;72.20
31387;DHT22;18017;50.124;8.688;2022-08-19T10:29:12;35.90;73.40
31387;DHT22;18017;50.124;8.688;2022-08-19T10:31:41;40.60;70.00
31387;DHT22;18017;50.124;8.688;2022-08-19T10:34:07;43.40;68.10
31387;DHT22;18017;50.124;8.688;2022-08-19T10:36:35;46.00;66.60
31387;DHT22;18017;50.124;8.688;2022-08-19T10:39:05;45.70;65.70
31387;DHT22;18017;50.124;8.688;2022-08-19T10:41:33;43.10;66.70
31387;DHT22;18017;50.124;8.688;2022-08-19T10:44:04;41.40;67.50
31387;DHT22;18017;50.124;8.688;2022-08-19T10:46:31;42.30;68.10
31387;DHT22;18017;50.124;8.688;2022-08-19T10:48:58;46.20;66.50
31387;DHT22;18017;50.124;8.688;2022-08-19T10:51:25;45.40;64.80
31387;DHT22;18017;50.124;8.688;2022-08-19T10:54:09;45.90;65.70
31387;DHT22;18017;50.124;8.688;2022-08-19T10:56:35;47.00;65.10
31387;DHT22;18017;50.124;8.688;2022-08-19T10:59:27;47.30;64.50
31387;DHT22;18017;50.124;8.688;2022-08-19T11:01:58;49.50;64.10
31387;DHT22;18017;50.124;8.688;2022-08-19T11:04:23;50.90;63.20
31387;DHT22;18017;50.124;8.688;2022-08-19T11:06:49;51.10;62.80
31387;DHT22;18017;50.124;8.688;2022-08-19T11:09:23;51.80;62.40
31387;DHT22;18017;50.124;8.688;2022-08-19T11:11:55;50.60;61.70
31387;DHT22;18017;50.124;8.688;2022-08-19T11:14:22;46.20;62.70
31387;DHT22;18017;50.124;8.688;2022-08-19T11:16:49;42.00;65.00
31387;DHT22;18017;50.124;8.688;2022-08-19T11:19:16;41.40;68.00
31387;DHT22;18017;50.124;8.688;2022-08-19T11:21:47;45.20;65.50
31387;DHT22;18017;50.124;8.688;2022-08-19T11:24:18;47.60;63.60
31387;DHT22;18017;50.124;8.688;2022-08-19T11:26:47;48.80;62.80
31387;DHT22;18017;50.124;8.688;2022-08-19T11:29:15;50.00;62.30
31387;DHT22;18017;50.124;8.688;2022-08-19T11:31:44;48.10;61.80
31387;DHT22;18017;50.124;8.688;2022-08-19T11:34:13;47.30;62.60
31387;DHT22;18017;50.124;8.688;2022-08-19T11:36:42;47.50;62.40
31387;DHT22;18017;50.124;8.688;2022-08-19T11:39:09;42.90;63.30
31387;DHT22;18017;50.124;8.688;2022-08-19T11:41:35;42.40;65.70
31387;DHT22;18017;50.124;8.688;2022-08-19T11:44:02;45.10;64.50
31387;DHT22;18017;50.124;8.688;2022-08-19T11:46:30;41.50;64.40
31387;DHT22;18017;50.124;8.688;2022-08-19T11:48:59;38.90;65.80
31387;DHT22;18017;50.124;8.688;2022-08-19T11:51:27;37.40;67.10
31387;DHT22;18017;50.124;8.688;2022-08-19T11:53:57;40.80;67.10
31387;DHT22;18017;50.124;8.688;2022-08-19T11:56:23;44.00;65.40
31387;DHT22;18017;50.124;8.688;2022-08-19T11:58:50;45.70;64.30
31387;DHT22;18017;50.124;8.688;2022-08-19T12:01:19;44.40;63.30
31387;DHT22;18017;50.124;8.688;2022-08-19T12:03:46;41.10;64.50
31387;DHT22;18017;50.124;8.688;2022-08-19T12:06:36;38.80;66.30
31387;DHT22;18017;50.124;8.688;2022-08-19T12:09:03;37.00;67.50
31387;DHT22;18017;50.124;8.688;2022-08-19T12:11:30;35.60;68.80
31387;DHT22;18017;50.124;8.688;2022-08-19T12:13:56;36.80;69.70
31387;DHT22;18017;50.124;8.688;2022-08-19T12:16:25;40.60;67.20
31387;DHT22;18017;50.124;8.688;2022-08-19T12:18:51;43.30;64.90
31387;DHT22;18017;50.124;8.688;2022-08-19T12:21:22;44.70;64.00
31387;DHT22;18017;50.124;8.688;2022-08-19T12:23:51;42.00;62.80
31387;DHT22;18017;50.124;8.688;2022-08-19T12:26:17;38.70;65.20
31387;DHT22;18017;50.124;8.688;2022-08-19T12:28:43;38.10;65.70
31387;DHT22;18017;50.124;8.688;2022-08-19T12:31:10;36.60;66.80
31387;DHT22;18017;50.124;8.688;2022-08-19T12:33:40;36.40;67.60
31387;DHT22;18017;50.124;8.688;2022-08-19T12:36:08;40.20;66.80
31387;DHT22;18017;50.124;8.688;2022-08-19T12:38:34;42.30;65.00
31387;DHT22;18017;50.124;8.688;2022-08-19T12:41:00;42.90;64.20
31387;DHT22;18017;50.124;8.688;2022-08-19T12:43:28;43.30;64.00
31387;DHT22;18017;50.124;8.688;2022-08-19T12:45:55;43.40;63.50
31387;DHT22;18017;50.124;8.688;2022-08-19T12:48:21;41.90;63.10
31387;DHT22;18017;50.124;8.688;2022-08-19T12:50:46;37.80;64.90
31387;DHT22;18017;50.124;8.688;2022-08-19T12:53:12;35.50;66.70
31387;DHT22;18017;50.124;8.688;2022-08-19T12:55:38;34.90;67.80
31387;DHT22;18017;50.124;8.688;2022-08-19T12:58:04;37.10;67.20
31387;DHT22;18017;50.124;8.688;2022-08-19T13:00:29;38.80;66.10
31387;DHT22;18017;50.124;8.688;2022-08-19T13:02:58;40.60;65.10
31387;DHT22;18017;50.124;8.688;2022-08-19T13:05:27;39.90;64.20
31387;DHT22;18017;50.124;8.688;2022-08-19T13:07:55;38.30;65.10
31387;DHT22;18017;50.124;8.688;2022-08-19T13:10:29;36.60;66.40
31387;DHT22;18017;50.124;8.688;2022-08-19T13:12:57;35.50;67.20
31387;DHT22;18017;50.124;8.688;2022-08-19T13:15:24;34.80;68.00
31387;DHT22;18017;50.124;8.688;2022-08-19T13:17:52;34.20;68.50
31387;DHT22;18017;50.124;8.688;2022-08-19T13:20:19;33.60;68.50
31387;DHT22;18017;50.124;8.688;2022-08-19T13:22:46;33.20;69.10
31387;DHT22;18017;50.124;8.688;2022-08-19T13:25:13;34.10;67.90
31387;DHT22;18017;50.124;8.688;2022-08-19T13:27:39;35.20;67.30
31387;DHT22;18017;50.124;8.688;2022-08-19T13:30:07;36.90;66.50
31387;DHT22;18017;50.124;8.688;2022-08-19T13:32:52;36.40;65.40
31387;DHT22;18017;50.124;8.688;2022-08-19T13:35:49;37.30;65.80
31387;DHT22;18017;50.124;8.688;2022-08-19T13:38:20;38.30;64.70
31387;DHT22;18017;50.124;8.688;2022-08-19T13:40:47;36.70;65.00
31387;DHT22;18017;50.124;8.688;2022-08-19T13:43:14;36.30;66.40
31387;DHT22;18017;50.124;8.688;2022-08-19T13:45:40;37.30;65.50
31387;DHT22;18017;50.124;8.688;2022-08-19T13:48:07;37.10;65.50
31387;DHT22;18017;50.124;8.688;2022-08-19T13:50:38;36.60;66.30
31387;DHT22;18017;50.124;8.688;2022-08-19T13:53:08;37.30;66.40
31387;DHT22;18017;50.124;8.688;2022-08-19T13:55:33;37.50;66.00
31387;DHT22;18017;50.124;8.688;2022-08-19T13:58:00;38.10;65.70
31387;DHT22;18017;50.124;8.688;2022-08-19T14:00:33;38.10;65.40
31387;DHT22;18017;50.124;8.688;2022-08-19T14:02:59;38.40;65.50
31387;DHT22;18017;50.124;8.688;2022-08-19T14:05:26;38.40;65.30
31387;DHT22;18017;50.124;8.688;2022-08-19T14:07:52;38.50;65.10
31387;DHT22;18017;50.124;8.688;2022-08-19T14:10:18;38.60;65.00
31387;DHT22;18017;50.124;8.688;2022-08-19T14:12:45;38.20;64.50
31387;DHT22;18017;50.124;8.688;2022-08-19T14:15:12;38.10;64.80
31387;DHT22;18017;50.124;8.688;2022-08-19T14:17:39;37.70;64.70
31387;DHT22;18017;50.124;8.688;2022-08-19T14:20:07;36.90;65.40
31387;DHT22;18017;50.124;8.688;2022-08-19T14:22:38;36.40;65.80
31387;DHT22;18017;50.124;8.688;2022-08-19T14:25:09;35.90;66.10
31387;DHT22;18017;50.124;8.688;2022-08-19T14:27:37;35.30;66.20
31387;DHT22;18017;50.124;8.688;2022-08-19T14:30:08;34.60;66.70
31387;DHT22;18017;50.124;8.688;2022-08-19T14:32:34;35.00;66.80
31387;DHT22;18017;50.124;8.688;2022-08-19T14:35:01;35.40;66.40
31387;DHT22;18017;50.124;8.688;2022-08-19T14:37:26;34.90;66.90
31387;DHT22;18017;50.124;8.688;2022-08-19T14:39:52;34.50;67.20
31387;DHT22;18017;50.124;8.688;2022-08-19T14:42:18;34.20;67.00
31387;DHT22;18017;50.124;8.688;2022-08-19T14:44:44;34.10;67.60
31387;DHT22;18017;50.124;8.688;2022-08-19T14:47:10;33.80;67.80
31387;DHT22;18017;50.124;8.688;2022-08-19T14:49:36;33.60;68.20
31387;DHT22;18017;50.124;8.688;2022-08-19T14:52:03;33.40;68.40
31387;DHT22;18017;50.124;8.688;2022-08-19T14:54:29;33.60;68.40
31387;DHT22;18017;50.124;8.688;2022-08-19T14:56:55;33.80;68.00
31387;DHT22;18017;50.124;8.688;2022-08-19T14:59:21;33.90;67.60
31387;DHT22;18017;50.124;8.688;2022-08-19T15:01:47;34.00;67.50
31387;DHT22;18017;50.124;8.688;2022-08-19T15:04:12;34.00;67.20
31387;DHT22;18017;50.124;8.688;2022-08-19T15:06:38;34.00;67.50
31387;DHT22;18017;50.124;8.688;2022-08-19T15:09:04;34.00;68.10
31387;DHT22;18017;50.124;8.688;2022-08-19T15:11:30;33.90;67.60
31387;DHT22;18017;50.124;8.688;2022-08-19T15:13:58;33.70;67.20
31387;DHT22;18017;50.124;8.688;2022-08-19T15:16:25;33.50;67.60
31387;DHT22;18017;50.124;8.688;2022-08-19T15:18:54;33.20;67.70
31387;DHT22;18017;50.124;8.688;2022-08-19T15:21:21;32.80;71.70
31387;DHT22;18017;50.124;8.688;2022-08-19T15:23:47;32.30;74.00
31387;DHT22;18017;50.124;8.688;2022-08-19T15:26:15;32.20;74.10
31387;DHT22;18017;50.124;8.688;2022-08-19T15:28:41;32.10;71.10
31387;DHT22;18017;50.124;8.688;2022-08-19T15:31:07;32.10;76.50
31387;DHT22;18017;50.124;8.688;2022-08-19T15:33:34;32.10;72.60
31387;DHT22;18017;50.124;8.688;2022-08-19T15:36:04;32.20;74.90
31387;DHT22;18017;50.124;8.688;2022-08-19T15:38:31;32.20;73.60
31387;DHT22;18017;50.124;8.688;2022-08-19T15:41:04;32.20;75.00
31387;DHT22;18017;50.124;8.688;2022-08-19T15:43:58;32.30;73.70